Time;durP1;ratioP1;P1;durP2;ratioP2;P2;SDS_P1;SDS_P2;PMS_P1;PMS_P2;Temp;Humidity;BMP_temperature;BMP_pressure;BME280_temperature;BME280_humidity;BME280_pressure;Samples;Min_cycle;Max_cycle;Signal;HPM_P1;HPM_P2
2024/02/23 00:01:46;;;;;;;13.10;5.50;;;;;;;8.19;82.72;96563.61;433888;1260;112053;-39
2024/02/23 00:11:54;;;;;;;6.20;4.70;;;;;;;8.33;82.74;96555.83;433844;1260;109037;-39
2024/02/23 00:22:02;;;;;;;8.70;5.40;;;;;;;8.38;82.58;96560.10;433980;1257;99228;-40
2024/02/23 00:32:11;;;;;;;10.20;6.00;;;;;;;8.40;82.35;96553.35;433683;1258;108681;-40
2024/02/23 00:42:17;;;;;;;10.00;6.40;;;;;;;8.39;82.52;96545.67;433734;1261;98102;-39
2024/02/23 00:52:24;;;;;;;11.20;6.20;;;;;;;8.32;82.69;96538.02;433935;1257;112264;-40
2024/02/23 01:02:31;;;;;;;11.60;6.50;;;;;;;8.16;82.92;96536.23;433846;1261;110526;-40
2024/02/23 01:12:38;;;;;;;10.90;6.60;;;;;;;8.08;83.09;96541.46;433751;1261;99224;-41
2024/02/23 01:22:46;;;;;;;13.90;6.20;;;;;;;8.05;83.41;96545.83;433791;1260;108454;-41
2024/02/23 01:32:53;;;;;;;13.40;6.10;;;;;;;7.98;83.79;96550.18;433822;1257;99239;-41
2024/02/23 01:43:04;;;;;;;12.90;7.90;;;;;;;7.88;84.18;96557.99;433834;1261;111839;-41
2024/02/23 02:03:19;;;;;;;13.60;8.70;;;;;;;7.71;85.05;96550.97;433954;1260;98428;-40
2024/02/23 02:23:37;;;;;;;11.20;7.10;;;;;;;7.64;85.76;96553.13;434557;1255;99269;-40
2024/02/23 02:33:44;;;;;;;11.50;8.00;;;;;;;7.59;86.15;96563.27;434123;1262;110964;-41
2024/02/23 02:43:52;;;;;;;15.00;9.30;;;;;;;7.48;86.57;96565.83;433871;1260;108120;-40
2024/02/23 02:53:59;;;;;;;9.80;7.50;;;;;;;7.41;86.72;96564.39;434069;1269;99871;-39
2024/02/23 03:04:07;;;;;;;10.60;7.10;;;;;;;7.41;86.99;96570.33;433930;1260;108446;-40
2024/02/23 03:14:14;;;;;;;15.50;7.20;;;;;;;7.42;87.40;96575.44;433946;1273;99369;-40
2024/02/23 03:24:21;;;;;;;10.80;7.30;;;;;;;7.39;87.85;96569.59;433817;1269;111757;-40
2024/02/23 03:34:28;;;;;;;13.80;7.60;;;;;;;7.39;87.96;96572.48;433876;1259;107404;-40
2024/02/23 03:44:36;;;;;;;10.70;7.10;;;;;;;7.35;88.43;96583.41;433928;1259;99244;-40
2024/02/23 03:54:43;;;;;;;11.50;7.70;;;;;;;7.35;88.69;96587.14;434032;1257;109515;-40
2024/02/23 04:04:50;;;;;;;8.80;6.40;;;;;;;7.40;88.70;96596.36;434019;1260;99330;-40
2024/02/23 04:14:57;;;;;;;10.00;6.90;;;;;;;7.41;88.92;96604.61;433632;1260;675745;-40
2024/02/23 04:35:12;;;;;;;14.20;8.20;;;;;;;7.35;89.24;96629.20;434074;1257;99279;-40
2024/02/23 04:45:17;;;;;;;13.10;8.00;;;;;;;7.30;89.30;96636.00;433956;1257;109605;-40
2024/02/23 04:55:24;;;;;;;10.50;7.10;;;;;;;7.29;89.55;96639.48;434038;1260;99236;-39
2024/02/23 05:15:39;;;;;;;8.00;6.10;;;;;;;7.28;90.44;96657.02;434009;1255;107691;-40
2024/02/23 05:25:46;;;;;;;14.50;6.40;;;;;;;7.30;90.60;96675.65;433911;1261;98025;-40
2024/02/23 05:35:54;;;;;;;8.30;5.40;;;;;;;7.31;90.52;96701.10;433861;1257;109534;-40
2024/02/23 05:46:01;;;;;;;10.00;6.70;;;;;;;7.25;90.82;96717.73;434026;1261;99237;-40
2024/02/23 05:56:06;;;;;;;11.70;6.30;;;;;;;7.13;91.25;96724.25;434204;1257;112127;-38
2024/02/23 06:06:14;;;;;;;8.10;6.70;;;;;;;7.09;91.53;96737.99;433905;1261;107927;-40
2024/02/23 06:16:21;;;;;;;7.20;4.80;;;;;;;7.11;91.77;96752.48;433963;1261;99255;-40
2024/02/23 06:26:29;;;;;;;7.60;5.40;;;;;;;7.14;92.26;96772.46;434020;1257;108020;-38
2024/02/23 06:36:37;;;;;;;10.60;5.80;;;;;;;7.19;92.80;96792.05;433933;1256;99356;-39
2024/02/23 06:56:49;;;;;;;9.90;6.80;;;;;;;7.27;93.45;96806.02;433805;1261;108700;-40
2024/02/23 07:06:55;;;;;;;9.70;4.90;;;;;;;7.30;93.80;96817.82;433992;1260;99368;-39
2024/02/23 07:17:03;;;;;;;8.00;5.80;;;;;;;7.34;94.17;96838.96;434076;1256;106917;-39
2024/02/23 07:27:09;;;;;;;9.90;5.90;;;;;;;7.43;94.37;96846.23;433906;1261;99253;-40
2024/02/23 07:37:16;;;;;;;8.30;5.80;;;;;;;7.50;94.77;96855.89;434029;1261;112162;-40
2024/02/23 07:47:23;;;;;;;6.20;4.30;;;;;;;7.60;94.67;96857.86;433985;1256;109399;-40
2024/02/23 08:07:38;;;;;;;5.30;4.40;;;;;;;7.71;94.87;96847.97;433880;1260;107517;-39
2024/02/23 08:17:45;;;;;;;6.50;4.80;;;;;;;7.77;94.91;96856.15;433754;1261;99333;-40
2024/02/23 08:27:53;;;;;;;8.90;5.80;;;;;;;7.84;94.95;96862.63;434017;1261;111472;-40
2024/02/23 08:38:00;;;;;;;13.00;7.20;;;;;;;7.89;94.92;96861.70;433962;1256;108483;-38
2024/02/23 08:48:06;;;;;;;11.00;7.30;;;;;;;7.95;94.88;96863.63;433996;1257;98014;-38
2024/02/23 08:58:14;;;;;;;10.30;8.20;;;;;;;7.96;94.97;96880.31;433927;1260;107807;-40
2024/02/23 09:08:21;;;;;;;12.60;8.50;;;;;;;7.99;94.99;96892.80;433906;1258;98823;-41
2024/02/23 09:18:28;;;;;;;11.40;8.60;;;;;;;8.03;95.08;96912.35;433916;1260;112308;-39
2024/02/23 09:28:35;;;;;;;9.60;7.00;;;;;;;8.07;95.24;96920.02;433834;1256;108237;-40
2024/02/23 09:38:44;;;;;;;20.50;10.10;;;;;;;8.14;95.32;96927.95;433871;1260;99230;-38
2024/02/23 09:59:00;;;;;;;12.70;6.80;;;;;;;8.41;95.41;96958.14;434088;1257;99368;-39
2024/02/23 10:09:07;;;;;;;13.20;7.70;;;;;;;8.65;95.37;96974.80;433873;1262;111134;-40
2024/02/23 10:19:15;;;;;;;9.30;6.10;;;;;;;9.01;95.51;96979.66;434053;1261;109971;-40
2024/02/23 10:39:32;;;;;;;9.50;6.90;;;;;;;9.53;95.29;96989.73;434220;1261;108397;-40
2024/02/23 10:59:47;;;;;;;10.40;6.30;;;;;;;9.67;94.61;97008.16;434157;1256;112267;-42
2024/02/23 11:09:55;;;;;;;9.20;5.60;;;;;;;9.64;94.53;97025.67;433997;1256;108405;-40
2024/02/23 11:20:06;;;;;;;8.60;6.20;;;;;;;9.64;94.30;97032.80;434013;1260;99113;-40
2024/02/23 11:30:17;;;;;;;9.60;7.30;;;;;;;9.51;94.23;97046.05;434055;1256;107687;-40
2024/02/23 11:40:25;;;;;;;10.50;6.60;;;;;;;9.43;94.03;97047.75;434026;1256;99233;-40
2024/02/23 11:50:32;;;;;;;9.60;7.20;;;;;;;9.44;93.97;97047.61;433911;1256;112241;-38
2024/02/23 12:00:40;;;;;;;9.40;6.90;;;;;;;9.46;94.10;97058.69;433966;1256;109108;-40
2024/02/23 12:10:48;;;;;;;13.30;7.80;;;;;;;9.49;94.05;97066.31;434028;1256;99258;-40
2024/02/23 12:31:07;;;;;;;12.80;7.10;;;;;;;9.38;93.70;97089.21;433931;1256;97994;-40
2024/02/23 12:41:14;;;;;;;13.70;8.30;;;;;;;9.38;93.75;97065.67;433900;1256;112843;-40
2024/02/23 12:51:26;;;;;;;15.00;8.80;;;;;;;9.49;93.81;97074.84;433708;1256;107663;-40
2024/02/23 13:01:36;;;;;;;17.50;10.10;;;;;;;9.63;94.04;97095.23;434077;1261;98141;-40
2024/02/23 13:11:45;;;;;;;16.10;9.60;;;;;;;9.58;93.67;97105.36;433954;1259;108968;-40
2024/02/23 13:21:52;;;;;;;;;;;;;;;9.40;93.38;97119.49;433987;1261;99233;-40
2024/02/23 13:31:59;;;;;;;14.30;7.80;;;;;;;9.34;93.39;97120.17;433810;1256;113039;-40
2024/02/23 13:42:09;;;;;;;16.70;9.30;;;;;;;9.37;93.34;97127.46;434023;1256;109678;-40
2024/02/23 13:52:15;;;;;;;19.90;11.20;;;;;;;9.33;93.56;97128.30;434010;1259;99221;-39
2024/02/23 14:02:24;;;;;;;25.00;11.20;;;;;;;9.24;93.58;97125.94;434102;1260;109069;-39
2024/02/23 14:12:32;;;;;;;16.30;10.10;;;;;;;9.14;93.33;97136.64;434070;1260;99208;-40
2024/02/23 14:22:40;;;;;;;18.60;12.00;;;;;;;9.11;93.38;97142.70;434039;1262;111393;-39
2024/02/23 14:32:48;;;;;;;17.60;11.70;;;;;;;9.08;93.35;97150.86;434351;1256;109316;-40
2024/02/23 14:42:56;;;;;;;19.50;11.00;;;;;;;9.04;93.42;97163.65;433973;1261;99253;-40
2024/02/23 14:53:03;;;;;;;26.60;14.60;;;;;;;8.94;93.56;97174.50;434075;1261;109236;-39
2024/02/23 15:03:10;;;;;;;25.20;16.70;;;;;;;8.78;93.65;97176.08;434027;1256;99240;-39
2024/02/23 15:13:17;;;;;;;20.80;13.50;;;;;;;8.69;93.69;97176.52;433870;1262;110841;-40
2024/02/23 15:23:25;;;;;;;27.80;18.00;;;;;;;8.62;93.51;97179.14;433876;1256;108684;-39
2024/02/23 15:33:31;;;;;;;30.60;15.60;;;;;;;8.66;93.83;97177.57;434070;1256;99260;-41
2024/02/23 15:43:39;;;;;;;34.20;19.20;;;;;;;8.57;93.73;97182.63;434000;1260;106151;-40
2024/02/23 15:53:44;;;;;;;24.90;17.40;;;;;;;8.48;93.80;97190.44;433964;1261;99353;-38
2024/02/23 16:03:51;;;;;;;37.30;27.90;;;;;;;8.39;93.98;97189.11;433970;1256;111163;-39
2024/02/23 16:13:57;;;;;;;97.50;42.50;;;;;;;8.19;94.06;97192.54;433813;1262;443167;-40
2024/02/23 16:24:06;;;;;;;38.70;21.20;;;;;;;8.05;94.00;97204.55;434074;1256;98869;-39
2024/02/23 16:34:14;;;;;;;32.10;20.40;;;;;;;8.02;94.13;97224.79;434049;1261;107779;-39
2024/02/23 16:44:20;;;;;;;41.20;24.60;;;;;;;8.00;94.02;97238.93;433944;1256;98597;-40
2024/02/23 16:54:28;;;;;;;64.40;37.80;;;;;;;7.98;94.11;97243.97;434076;1260;110599;-39
2024/02/23 17:04:36;;;;;;;64.20;39.20;;;;;;;7.95;94.43;97227.14;434753;1261;107979;-39
2024/02/23 17:14:43;;;;;;;55.30;34.20;;;;;;;7.92;94.39;97223.74;433980;1256;99333;-40
2024/02/23 17:24:50;;;;;;;58.90;34.60;;;;;;;7.86;94.59;97228.10;434629;1256;108441;-41
2024/02/23 17:34:57;;;;;;;40.00;24.10;;;;;;;7.82;94.54;97226.79;434470;1256;98253;-40
2024/02/23 17:45:04;;;;;;;45.10;25.90;;;;;;;7.74;94.59;97241.10;434082;1262;111283;-41
2024/02/23 17:55:09;;;;;;;54.00;30.10;;;;;;;7.64;94.81;97244.20;434194;1260;107800;-40
2024/02/23 18:05:16;;;;;;;51.70;30.00;;;;;;;7.62;94.81;97244.35;434009;1260;99233;-40
2024/02/23 18:15:22;;;;;;;53.40;34.70;;;;;;;7.66;95.00;97233.02;433997;1261;107841;-39
2024/02/23 18:25:29;;;;;;;54.60;33.20;;;;;;;7.72;95.16;97231.14;434157;1262;99916;-42
2024/02/23 18:35:37;;;;;;;56.40;32.10;;;;;;;7.79;95.39;97224.13;433841;1262;111706;-41
2024/02/23 18:45:44;;;;;;;57.00;32.30;;;;;;;7.86;95.61;97222.74;433977;1262;108862;-40
2024/02/23 18:55:52;;;;;;;42.10;27.00;;;;;;;7.87;95.61;97217.01;434067;1256;99485;-39
2024/02/23 19:05:59;;;;;;;52.50;30.80;;;;;;;7.75;95.41;97213.23;433992;1260;107610;-39
2024/02/23 19:26:18;;;;;;;30.50;18.40;;;;;;;7.64;95.33;97215.89;433825;1261;111044;-40
2024/02/23 19:46:32;;;;;;;24.10;15.70;;;;;;;7.65;95.39;97212.33;433899;1261;98812;-40
2024/02/23 19:56:39;;;;;;;27.00;16.00;;;;;;;7.62;95.49;97208.73;433867;1261;107189;-40
2024/02/23 20:06:46;;;;;;;26.90;15.00;;;;;;;7.58;95.44;97207.61;435024;1261;97995;-40
2024/02/23 20:16:54;;;;;;;89.40;42.60;;;;;;;7.48;95.60;97192.66;434050;1260;111525;-40
2024/02/23 20:27:01;;;;;;;30.60;18.80;;;;;;;7.43;95.52;97176.92;434022;1260;108394;-40
2024/02/23 20:37:08;;;;;;;27.90;18.00;;;;;;;7.45;95.43;97172.79;433938;1262;99900;-40
2024/02/23 20:47:16;;;;;;;27.20;19.50;;;;;;;7.48;95.60;97160.98;433938;1260;108647;-40
2024/02/23 20:57:23;;;;;;;30.80;19.80;;;;;;;7.52;95.68;97144.67;433956;1269;99365;-40
2024/02/23 21:07:30;;;;;;;32.70;17.50;;;;;;;7.54;95.76;97140.84;433830;1262;112759;-40
2024/02/23 21:17:37;;;;;;;37.20;22.80;;;;;;;7.54;95.87;97149.38;434129;1270;107465;-41
2024/02/23 21:27:45;;;;;;;41.70;25.70;;;;;;;7.42;95.97;97150.14;434370;1260;98017;-40
2024/02/23 21:37:54;;;;;;;31.70;19.50;;;;;;;7.40;95.88;97134.71;434265;1260;107812;-39
2024/02/23 21:48:00;;;;;;;35.00;21.60;;;;;;;7.46;95.91;97127.41;433998;1269;99333;-40
2024/02/23 21:58:07;;;;;;;25.30;18.60;;;;;;;7.52;95.88;97120.63;434091;1260;112931;-41
2024/02/23 22:08:15;;;;;;;38.90;24.80;;;;;;;7.58;96.03;97103.73;434069;1260;107202;-39
2024/02/23 22:18:22;;;;;;;55.20;26.50;;;;;;;7.61;96.06;97108.33;434085;1261;99257;-41
2024/02/23 22:28:29;;;;;;;41.20;24.90;;;;;;;7.61;96.21;97105.13;433966;1262;108545;-40
2024/02/23 22:38:38;;;;;;;40.30;23.30;;;;;;;7.55;96.34;97086.38;433984;1258;99281;-39
2024/02/23 22:48:50;;;;;;;31.20;18.70;;;;;;;7.51;96.02;97074.27;434104;1258;112247;-40
2024/02/23 22:58:57;;;;;;;31.50;18.90;;;;;;;7.50;96.00;97072.80;433916;1258;108260;-40
2024/02/23 23:19:11;;;;;;;25.70;13.80;;;;;;;7.55;96.20;97049.59;433947;1260;109503;-39
2024/02/23 23:29:19;;;;;;;38.40;19.60;;;;;;;7.53;96.10;97033.90;434089;1260;99250;-40
2024/02/23 23:39:25;;;;;;;29.20;15.50;;;;;;;7.46;96.30;97028.63;434112;1260;113058;-39
2024/02/23 23:49:32;;;;;;;24.10;14.90;;;;;;;7.48;96.20;97019.19;433904;1269;107492;-40
2024/02/23 23:59:40;;;;;;;19.80;12.30;;;;;;;7.55;96.02;97013.23;434049;1261;99227;-39
